Time;durP1;ratioP1;P1;durP2;ratioP2;P2;SDS_P1;SDS_P2;PMS_P1;PMS_P2;Temp;Humidity;BMP_temperature;BMP_pressure;BME280_temperature;BME280_humidity;BME280_pressure;Samples;Min_cycle;Max_cycle;Signal;HPM_P1;HPM_P2
2021/04/18 00:01:29;;;;;;;10.37;7.67;;;;;;;5.70;100.00;95323.44;5090483;28;20304;-65
2021/04/18 00:03:56;;;;;;;13.90;8.83;;;;;;;5.73;100.00;95335.78;5090705;28;20234;-64
2021/04/18 00:06:23;;;;;;;13.13;8.30;;;;;;;5.74;100.00;95324.44;5090488;28;20226;-64
2021/04/18 00:08:50;;;;;;;12.47;8.80;;;;;;;5.80;100.00;95330.34;5090397;28;20579;-65
2021/04/18 00:11:19;;;;;;;12.63;7.97;;;;;;;5.87;100.00;95328.28;5090215;28;20218;-64
2021/04/18 00:13:46;;;;;;;13.07;8.10;;;;;;;5.90;100.00;95323.34;5090449;28;20658;-64
2021/04/18 00:16:14;;;;;;;12.37;8.50;;;;;;;5.91;100.00;95324.13;5089975;28;20237;-65
2021/04/18 00:18:42;;;;;;;13.70;9.70;;;;;;;5.95;100.00;95320.75;5090412;28;20715;-65
2021/04/18 00:21:08;;;;;;;14.87;10.57;;;;;;;6.00;100.00;95317.38;5090441;28;20236;-65
2021/04/18 00:23:35;;;;;;;13.23;9.90;;;;;;;6.04;100.00;95319.13;5090204;28;20203;-64
2021/04/18 00:26:02;;;;;;;16.17;10.30;;;;;;;6.11;100.00;95318.84;5090006;28;20245;-65
2021/04/18 00:28:30;;;;;;;13.73;9.97;;;;;;;6.09;100.00;95307.25;5090190;28;20594;-65
2021/04/18 00:30:57;;;;;;;11.80;8.63;;;;;;;6.01;100.00;95304.22;5090020;28;20192;-65
2021/04/18 00:33:24;;;;;;;14.13;9.63;;;;;;;6.12;100.00;95304.91;5090009;28;20205;-64
2021/04/18 00:35:51;;;;;;;17.00;11.10;;;;;;;6.10;100.00;95308.78;5089955;28;20207;-65
2021/04/18 00:38:19;;;;;;;19.67;13.53;;;;;;;6.11;100.00;95316.25;5089969;28;20663;-65
2021/04/18 00:40:46;;;;;;;15.60;11.33;;;;;;;6.16;100.00;95311.06;5090004;28;20208;-65
2021/04/18 00:43:12;;;;;;;22.67;15.57;;;;;;;6.12;100.00;95315.22;5089971;28;20636;-65
2021/04/18 00:45:40;;;;;;;18.30;12.43;;;;;;;6.05;100.00;95315.53;5090091;28;20203;-64
2021/04/18 00:48:08;;;;;;;21.43;13.37;;;;;;;6.19;100.00;95320.06;5089773;28;20292;-63
2021/04/18 00:50:37;;;;;;;17.90;12.40;;;;;;;6.12;100.00;95320.38;5090083;28;20202;-64
2021/04/18 00:53:05;;;;;;;15.07;11.80;;;;;;;6.11;100.00;95324.00;5089809;28;20207;-62
2021/04/18 00:55:35;;;;;;;16.80;11.47;;;;;;;6.21;100.00;95310.25;5089845;28;20293;-65
2021/04/18 00:58:04;;;;;;;15.87;12.00;;;;;;;6.14;100.00;95320.09;5089982;28;20188;-64
2021/04/18 01:00:31;;;;;;;14.37;10.70;;;;;;;6.19;100.00;95314.91;5089882;28;20237;-65
2021/04/18 01:02:59;;;;;;;17.90;11.80;;;;;;;6.26;100.00;95302.47;5089736;28;20287;-64
2021/04/18 01:05:26;;;;;;;16.23;11.40;;;;;;;6.36;100.00;95299.81;5089672;28;20282;-64
2021/04/18 01:07:53;;;;;;;16.47;12.67;;;;;;;6.28;100.00;95302.97;5091133;28;20238;-63
2021/04/18 01:10:21;;;;;;;21.47;15.60;;;;;;;6.29;100.00;95310.44;5093562;28;20250;-65
2021/04/18 01:12:48;;;;;;;22.07;14.63;;;;;;;6.32;100.00;95309.16;5093505;28;20192;-65
2021/04/18 01:15:16;;;;;;;17.03;12.77;;;;;;;6.33;100.00;95308.84;5093110;28;20192;-64
2021/04/18 01:17:43;;;;;;;17.53;11.43;;;;;;;6.31;100.00;95292.91;5093369;28;20218;-64
2021/04/18 01:20:14;;;;;;;19.57;13.60;;;;;;;6.23;100.00;95300.41;5093321;28;20188;-65
2021/04/18 01:22:42;;;;;;;19.00;13.40;;;;;;;6.22;100.00;95294.53;5093254;28;20207;-65
2021/04/18 01:25:11;;;;;;;16.80;12.57;;;;;;;6.28;100.00;95305.53;5093198;28;20252;-65
2021/04/18 01:27:39;;;;;;;18.50;11.73;;;;;;;6.33;100.00;95295.19;5093209;28;20195;-65
2021/04/18 01:30:08;;;;;;;16.37;11.97;;;;;;;6.31;100.00;95295.47;5093198;28;20293;-64
2021/04/18 01:32:35;;;;;;;15.00;11.27;;;;;;;6.33;100.00;95295.19;5093268;28;20248;-65
2021/04/18 01:35:02;;;;;;;15.97;10.70;;;;;;;6.34;100.00;95291.56;5092984;28;20196;-63
2021/04/18 01:37:29;;;;;;;15.40;11.23;;;;;;;6.31;100.00;95297.28;5093028;28;20690;-65
2021/04/18 01:39:57;;;;;;;18.63;13.30;;;;;;;6.22;100.00;95293.75;5093374;28;20596;-65
2021/04/18 01:42:24;;;;;;;20.30;12.97;;;;;;;6.27;100.00;95298.88;5093149;28;20200;-65
2021/04/18 01:44:51;;;;;;;21.00;15.60;;;;;;;6.17;100.00;95296.38;5092907;28;20627;-65
2021/04/18 01:47:18;;;;;;;20.90;15.40;;;;;;;6.24;100.00;95291.66;5092832;28;20198;-64
2021/04/18 01:49:44;;;;;;;27.13;18.33;;;;;;;6.14;100.00;95302.03;5092796;28;20283;-64
2021/04/18 01:52:11;;;;;;;20.70;16.33;;;;;;;6.12;100.00;95286.09;5092918;28;20205;-65
2021/04/18 01:54:38;;;;;;;20.60;16.33;;;;;;;6.16;100.00;95284.50;5092918;28;20205;-64
2021/04/18 01:57:06;;;;;;;25.83;18.27;;;;;;;6.11;100.00;95289.69;5092852;28;20218;-65
2021/04/18 01:59:33;;;;;;;27.87;18.73;;;;;;;6.10;100.00;95298.47;5092771;28;20237;-65
2021/04/18 02:02:07;;;;;;;20.00;15.67;;;;;;;6.07;100.00;95299.78;5092463;28;20237;-64
2021/04/18 02:04:34;;;;;;;22.03;16.43;;;;;;;5.99;100.00;95305.50;5092241;28;20203;-65
2021/04/18 02:07:02;;;;;;;24.40;15.87;;;;;;;6.08;100.00;95305.72;5092436;28;20237;-65
2021/04/18 02:09:31;;;;;;;30.10;20.60;;;;;;;5.98;100.00;95309.13;5092332;28;20269;-63
2021/04/18 02:11:58;;;;;;;25.80;17.53;;;;;;;6.02;100.00;95303.19;5092289;28;20192;-65
2021/04/18 02:14:27;;;;;;;24.93;17.77;;;;;;;5.98;100.00;95307.31;5092313;28;20193;-64
2021/04/18 02:16:55;;;;;;;27.40;19.00;;;;;;;6.19;100.00;95304.59;5092650;28;20285;-64
2021/04/18 02:19:21;;;;;;;30.03;19.13;;;;;;;6.14;100.00;95294.31;5092234;28;20203;-65
2021/04/18 02:21:48;;;;;;;28.87;20.27;;;;;;;6.20;100.00;95293.22;5092040;28;20208;-64
2021/04/18 02:24:16;;;;;;;27.13;18.97;;;;;;;6.09;100.00;95302.84;5092173;28;20192;-65
2021/04/18 02:26:42;;;;;;;29.17;19.67;;;;;;;6.13;100.00;95297.94;5092138;28;20192;-64
2021/04/18 02:29:09;;;;;;;32.13;19.77;;;;;;;6.07;100.00;95296.44;5091957;28;20255;-64
2021/04/18 02:31:37;;;;;;;26.87;18.37;;;;;;;6.04;100.00;95293.34;5091935;28;20192;-65
2021/04/18 02:34:05;;;;;;;27.40;18.50;;;;;;;6.16;100.00;95292.25;5092068;28;20196;-63
2021/04/18 02:36:32;;;;;;;23.40;15.97;;;;;;;6.11;100.00;95298.22;5092003;28;20207;-64
2021/04/18 02:38:58;;;;;;;22.37;15.00;;;;;;;6.18;100.00;95292.72;5091806;28;20195;-65
2021/04/18 02:41:25;;;;;;;25.40;16.97;;;;;;;6.12;100.00;95288.66;5091891;28;20211;-65
2021/04/18 02:43:52;;;;;;;27.97;16.73;;;;;;;6.10;100.00;95285.56;5091667;28;20279;-65
2021/04/18 02:46:19;;;;;;;27.17;18.30;;;;;;;5.95;100.00;95284.66;5091556;28;20192;-65
2021/04/18 02:48:47;;;;;;;27.30;16.30;;;;;;;5.88;100.00;95289.31;5091468;28;20239;-65
2021/04/18 02:51:14;;;;;;;25.47;17.27;;;;;;;5.99;100.00;95300.34;5091474;28;20575;-65
2021/04/18 02:53:40;;;;;;;22.60;16.27;;;;;;;5.99;100.00;95302.91;5091461;28;20670;-65
2021/04/18 02:56:07;;;;;;;26.43;16.03;;;;;;;6.06;100.00;95305.97;5091264;28;20615;-66
2021/04/18 02:58:34;;;;;;;25.20;15.63;;;;;;;6.04;100.00;95290.78;5091618;28;20196;-65
2021/04/18 03:01:01;;;;;;;24.47;15.90;;;;;;;5.93;100.00;95302.19;5091898;28;20413;-66
2021/04/18 03:03:28;;;;;;;27.80;16.53;;;;;;;5.86;100.00;95304.28;5091252;28;20691;-64
2021/04/18 03:05:56;;;;;;;25.40;16.40;;;;;;;5.84;100.00;95300.41;5091264;28;20282;-65
2021/04/18 03:08:23;;;;;;;28.70;17.37;;;;;;;5.76;100.00;95304.34;5091090;28;20710;-65
2021/04/18 03:10:50;;;;;;;27.77;17.00;;;;;;;5.77;100.00;95311.03;5091205;28;20219;-65
2021/04/18 03:13:19;;;;;;;25.47;15.33;;;;;;;5.89;100.00;95311.50;5091251;28;20202;-65
2021/04/18 03:15:46;;;;;;;24.10;16.17;;;;;;;5.84;100.00;95308.91;5091245;28;20219;-66
2021/04/18 03:18:13;;;;;;;25.70;17.17;;;;;;;5.74;100.00;95306.41;5091007;28;20235;-65
2021/04/18 03:20:40;;;;;;;22.77;15.67;;;;;;;5.69;100.00;95321.13;5091238;28;20274;-65
2021/04/18 03:23:08;;;;;;;26.00;16.20;;;;;;;5.78;100.00;95330.59;5091055;28;20192;-66
2021/04/18 03:25:35;;;;;;;27.73;15.60;;;;;;;5.93;100.00;95322.81;5090907;28;20198;-64
2021/04/18 03:28:01;;;;;;;24.60;16.77;;;;;;;5.89;100.00;95326.19;5090813;28;20322;-65
2021/04/18 03:30:31;;;;;;;25.50;15.53;;;;;;;5.90;100.00;95318.19;5090134;28;20674;-64
2021/04/18 03:32:58;;;;;;;25.90;16.20;;;;;;;5.88;100.00;95330.59;5090985;28;20191;-64
2021/04/18 03:35:25;;;;;;;26.57;15.93;;;;;;;5.90;100.00;95336.25;5090645;28;20319;-65
2021/04/18 03:37:52;;;;;;;28.67;16.37;;;;;;;5.84;100.00;95333.94;5090688;28;20299;-65
2021/04/18 03:40:21;;;;;;;24.57;16.83;;;;;;;5.96;100.00;95332.63;5091227;28;20234;-65
2021/04/18 03:42:47;;;;;;;23.93;15.80;;;;;;;5.90;100.00;95328.53;5090470;28;20195;-65
2021/04/18 03:45:16;;;;;;;22.30;15.67;;;;;;;5.91;100.00;95314.59;5090945;28;20221;-65
2021/04/18 03:47:43;;;;;;;28.17;16.10;;;;;;;5.70;100.00;95289.94;5090475;28;20191;-65
2021/04/18 03:50:12;;;;;;;28.63;16.17;;;;;;;5.76;100.00;95281.13;5090782;28;20207;-64
2021/04/18 03:52:38;;;;;;;24.70;15.87;;;;;;;5.67;100.00;95300.78;5090450;28;20783;-65
2021/04/18 03:55:06;;;;;;;28.70;16.10;;;;;;;5.68;100.00;95302.31;5090567;28;20196;-65
2021/04/18 03:57:34;;;;;;;27.87;15.07;;;;;;;5.70;100.00;95305.41;5090582;28;20216;-65
2021/04/18 04:00:01;;;;;;;26.37;15.27;;;;;;;5.63;100.00;95310.06;5090368;28;20278;-65
2021/04/18 04:02:28;;;;;;;27.30;15.03;;;;;;;5.66;100.00;95321.66;5090328;28;20196;-65
2021/04/18 04:04:54;;;;;;;22.83;14.07;;;;;;;5.66;100.00;95316.50;5090137;28;20227;-65
2021/04/18 04:07:21;;;;;;;26.63;14.63;;;;;;;5.63;100.00;95315.22;5090328;28;20287;-65
2021/04/18 04:09:48;;;;;;;22.60;14.00;;;;;;;5.59;100.00;95316.78;5090115;28;20258;-65
2021/04/18 04:12:15;;;;;;;26.07;14.37;;;;;;;5.55;100.00;95320.94;5090160;28;20579;-65
2021/04/18 04:14:42;;;;;;;25.30;14.13;;;;;;;5.62;100.00;95311.13;5090259;28;20202;-65
2021/04/18 04:17:10;;;;;;;23.37;13.53;;;;;;;5.62;100.00;95324.00;5090252;28;20306;-64
2021/04/18 04:19:36;;;;;;;21.43;13.60;;;;;;;5.64;100.00;95329.66;5090098;28;20204;-64
2021/04/18 04:22:03;;;;;;;20.47;13.20;;;;;;;5.56;100.00;95327.66;5090316;28;20666;-65
2021/04/18 04:24:31;;;;;;;21.10;13.53;;;;;;;5.66;100.00;95337.13;5087208;28;20199;-65
2021/04/18 04:26:57;;;;;;;26.63;13.27;;;;;;;5.69;100.00;95337.38;5086730;28;20196;-66
2021/04/18 04:29:24;;;;;;;22.60;13.37;;;;;;;5.67;100.00;95336.88;5094831;28;20314;-66
2021/04/18 04:31:52;;;;;;;23.17;13.90;;;;;;;5.63;100.00;95330.69;5109301;28;20205;-65
2021/04/18 04:34:19;;;;;;;20.47;13.13;;;;;;;5.62;100.00;95336.91;5108885;28;20282;-65
2021/04/18 04:36:45;;;;;;;21.50;13.63;;;;;;;5.63;100.00;95344.34;5110134;28;20282;-65
2021/04/18 04:39:12;;;;;;;20.93;12.27;;;;;;;5.60;100.00;95344.13;5110300;28;20195;-65
2021/04/18 04:41:39;;;;;;;19.77;12.43;;;;;;;5.70;100.00;95338.13;5111254;28;20187;-65
2021/04/18 04:44:06;;;;;;;20.93;13.70;;;;;;;5.58;100.00;95341.03;5114263;28;20248;-63
2021/04/18 04:46:33;;;;;;;26.20;14.27;;;;;;;5.64;100.00;95339.97;5113840;28;20203;-65
2021/04/18 04:49:01;;;;;;;20.67;13.63;;;;;;;5.70;100.00;95344.06;5113927;28;20222;-66
2021/04/18 04:51:28;;;;;;;26.00;15.13;;;;;;;5.65;100.00;95341.50;5113844;28;20199;-65
2021/04/18 04:53:54;;;;;;;19.40;13.73;;;;;;;5.60;100.00;95344.13;5114412;28;20231;-65
2021/04/18 04:56:21;;;;;;;21.67;13.33;;;;;;;5.58;100.00;95346.94;5113683;28;20303;-64
2021/04/18 04:58:48;;;;;;;19.23;12.80;;;;;;;5.68;100.00;95347.97;5113830;28;20226;-66
2021/04/18 05:01:15;;;;;;;24.70;15.30;;;;;;;5.78;100.00;95346.06;5113684;28;20733;-65
2021/04/18 05:03:41;;;;;;;21.57;14.80;;;;;;;5.79;100.00;95352.78;5114247;28;20232;-65
2021/04/18 05:06:11;;;;;;;21.63;14.63;;;;;;;5.75;100.00;95359.50;5113627;28;20198;-65
2021/04/18 05:08:37;;;;;;;22.80;15.33;;;;;;;5.76;100.00;95357.72;5113578;28;20265;-65
2021/04/18 05:11:05;;;;;;;26.67;16.97;;;;;;;5.78;100.00;95353.81;5113596;28;20282;-65
2021/04/18 05:13:32;;;;;;;20.43;12.93;;;;;;;5.86;100.00;95355.84;5114151;28;20191;-66
2021/04/18 05:15:59;;;;;;;19.13;14.47;;;;;;;5.84;100.00;95357.13;5113509;28;20757;-65
2021/04/18 05:18:25;;;;;;;19.40;12.93;;;;;;;5.69;100.00;95352.84;5113625;28;20208;-66
2021/04/18 05:20:52;;;;;;;20.20;14.83;;;;;;;5.77;100.00;95351.53;5113424;28;20242;-64
2021/04/18 05:23:20;;;;;;;16.40;11.97;;;;;;;5.81;100.00;95342.97;5113344;28;20195;-64
2021/04/18 05:25:47;;;;;;;23.27;15.83;;;;;;;5.81;100.00;95345.56;5113323;28;20283;-64
2021/04/18 05:28:14;;;;;;;21.87;14.40;;;;;;;5.90;100.00;95348.38;5113073;28;20715;-64
2021/04/18 05:30:40;;;;;;;23.50;15.47;;;;;;;5.88;100.00;95338.31;5113437;28;20191;-64
2021/04/18 05:33:08;;;;;;;23.03;14.00;;;;;;;5.92;100.00;95347.09;5113236;28;20254;-65
2021/04/18 05:35:35;;;;;;;22.47;14.93;;;;;;;5.96;100.00;95345.50;5113407;28;20196;-65
2021/04/18 05:38:03;;;;;;;24.63;16.07;;;;;;;5.97;100.00;95348.84;5113197;28;20606;-65
2021/04/18 05:40:31;;;;;;;22.90;16.40;;;;;;;6.02;100.00;95344.44;5113190;28;20203;-65
2021/04/18 05:42:57;;;;;;;23.47;16.07;;;;;;;6.22;100.00;95343.53;5113121;28;20235;-65
2021/04/18 05:45:24;;;;;;;23.97;14.40;;;;;;;6.25;100.00;95339.63;5113016;28;20197;-65
2021/04/18 05:47:51;;;;;;;22.13;14.13;;;;;;;6.28;100.00;95346.81;5113232;28;20251;-66
2021/04/18 05:50:18;;;;;;;26.33;14.03;;;;;;;6.38;100.00;95341.59;5112931;28;20544;-64
2021/04/18 05:52:45;;;;;;;23.97;14.60;;;;;;;6.37;100.00;95338.28;5112172;28;20251;-65
2021/04/18 05:55:13;;;;;;;17.63;12.80;;;;;;;6.45;100.00;95335.09;5113282;28;20227;-65
2021/04/18 05:57:40;;;;;;;18.87;13.23;;;;;;;6.35;100.00;95342.16;5112791;28;20277;-65
2021/04/18 06:00:09;;;;;;;19.10;13.83;;;;;;;6.40;100.00;95347.25;5112817;28;20274;-64
2021/04/18 06:02:36;;;;;;;26.23;16.70;;;;;;;6.34;100.00;95343.94;5112920;28;20236;-62
2021/04/18 06:05:03;;;;;;;27.47;17.57;;;;;;;6.39;100.00;95345.72;5112601;28;20184;-65
2021/04/18 06:07:30;;;;;;;20.60;14.83;;;;;;;6.34;100.00;95341.38;5112750;28;20274;-64
2021/04/18 06:09:56;;;;;;;24.03;15.47;;;;;;;6.39;100.00;95337.97;5112474;28;20234;-65
2021/04/18 06:12:23;;;;;;;30.97;17.50;;;;;;;6.40;100.00;95331.78;5112595;28;20199;-65
2021/04/18 06:14:52;;;;;;;27.23;16.07;;;;;;;6.57;100.00;95337.34;5112267;28;20195;-65
2021/04/18 06:17:19;;;;;;;23.53;15.77;;;;;;;6.56;100.00;95345.34;5112165;28;20255;-65
2021/04/18 06:19:46;;;;;;;21.77;15.07;;;;;;;6.57;100.00;95350.25;5112488;28;20210;-65
2021/04/18 06:22:13;;;;;;;24.57;13.37;;;;;;;6.56;100.00;95338.38;5112145;28;20206;-65
2021/04/18 06:24:39;;;;;;;21.37;14.70;;;;;;;6.68;100.00;95346.50;5112319;28;20270;-64
2021/04/18 06:27:07;;;;;;;23.93;15.60;;;;;;;6.70;100.00;95356.56;5112193;28;20213;-65
2021/04/18 06:29:34;;;;;;;25.47;14.20;;;;;;;6.73;100.00;95350.84;5112255;28;20250;-65
2021/04/18 06:32:02;;;;;;;18.73;14.00;;;;;;;6.70;100.00;95351.41;5112591;28;20207;-65
2021/04/18 06:34:29;;;;;;;21.13;13.63;;;;;;;6.83;100.00;95356.69;5112082;28;20194;-65
2021/04/18 06:36:55;;;;;;;19.40;13.67;;;;;;;6.95;99.76;95358.94;5112002;28;20286;-65
2021/04/18 06:39:22;;;;;;;22.20;13.20;;;;;;;6.90;99.61;95354.59;5111868;28;20642;-64
2021/04/18 06:41:53;;;;;;;19.27;12.63;;;;;;;6.97;99.13;95356.09;5112168;28;20202;-64
2021/04/18 06:44:21;;;;;;;18.90;13.30;;;;;;;6.96;98.80;95355.31;5111753;28;20198;-65
2021/04/18 06:46:49;;;;;;;23.53;11.87;;;;;;;6.92;98.99;95349.91;5111679;28;20195;-64
2021/04/18 06:49:17;;;;;;;19.30;13.27;;;;;;;7.04;99.48;95349.53;5111736;28;20231;-65
2021/04/18 06:51:45;;;;;;;21.90;14.37;;;;;;;6.98;98.92;95347.25;5111609;27;20191;-65
2021/04/18 06:54:12;;;;;;;19.03;13.57;;;;;;;7.05;98.71;95358.81;5111541;28;20187;-65
2021/04/18 06:56:39;;;;;;;22.53;15.17;;;;;;;6.99;99.13;95359.16;5111485;28;20215;-65
2021/04/18 06:59:06;;;;;;;24.63;15.33;;;;;;;7.08;100.00;95363.44;5111474;28;20190;-65
2021/04/18 07:01:35;;;;;;;29.53;19.73;;;;;;;7.03;99.21;95362.72;5111533;28;20195;-64
2021/04/18 07:04:14;;;;;;;22.27;13.50;;;;;;;6.91;99.61;95353.53;5111298;28;20191;-65
2021/04/18 07:06:43;;;;;;;21.60;13.67;;;;;;;7.05;99.59;95360.63;5110789;28;20298;-64
2021/04/18 07:09:11;;;;;;;23.20;15.33;;;;;;;7.05;100.00;95358.81;5111180;28;20223;-65
2021/04/18 07:11:52;;;;;;;25.50;15.80;;;;;;;6.89;98.42;95360.78;5111493;28;20187;-65
2021/04/18 07:14:24;;;;;;;21.07;12.47;;;;;;;6.98;97.92;95373.88;5111397;28;20285;-64
2021/04/18 07:16:53;;;;;;;22.60;14.50;;;;;;;7.06;97.54;95375.88;5111841;28;20237;-65
2021/04/18 07:19:21;;;;;;;30.00;19.10;;;;;;;6.98;98.50;95373.88;5111005;28;20194;-65
2021/04/18 07:21:51;;;;;;;18.77;13.10;;;;;;;7.04;96.67;95372.00;5110851;28;20194;-65
2021/04/18 07:24:19;;;;;;;23.37;15.47;;;;;;;7.12;96.38;95381.78;5111065;28;20195;-64
2021/04/18 07:26:59;;;;;;;33.70;21.20;;;;;;;7.09;98.49;95379.72;5110685;28;20196;-65
2021/04/18 07:29:27;;;;;;;26.83;18.63;;;;;;;7.17;97.15;95376.56;5111218;28;20279;-65
2021/04/18 07:31:58;;;;;;;26.57;17.07;;;;;;;7.17;97.72;95373.97;5111150;28;20195;-65
2021/04/18 07:34:26;;;;;;;41.53;24.40;;;;;;;7.22;96.63;95376.50;5110904;28;20197;-65
2021/04/18 07:37:09;;;;;;;44.77;29.80;;;;;;;7.22;97.13;95368.75;5110894;28;20227;-65
2021/04/18 07:39:48;;;;;;;39.50;25.23;;;;;;;7.17;95.73;95366.22;5110540;28;20191;-64
2021/04/18 07:42:32;;;;;;;29.73;18.57;;;;;;;7.24;97.68;95374.38;5110499;28;20665;-65
2021/04/18 07:45:03;;;;;;;27.37;16.73;;;;;;;7.31;98.75;95361.94;5110697;28;20203;-64
2021/04/18 07:47:30;;;;;;;22.57;15.90;;;;;;;7.45;99.15;95362.78;5110565;28;20686;-64
2021/04/18 07:49:57;;;;;;;25.70;18.83;;;;;;;7.51;95.43;95374.63;5110351;28;20274;-65
2021/04/18 07:52:26;;;;;;;29.23;16.67;;;;;;;7.54;96.42;95384.41;5110759;28;20218;-64
2021/04/18 07:54:53;;;;;;;27.00;16.60;;;;;;;7.51;97.83;95384.19;5110128;28;20228;-65
2021/04/18 07:57:21;;;;;;;24.87;14.73;;;;;;;7.57;99.43;95396.75;5110374;28;20195;-64
2021/04/18 07:59:48;;;;;;;26.00;17.03;;;;;;;7.66;98.96;95392.56;5110444;28;20191;-65
2021/04/18 08:02:19;;;;;;;26.77;17.00;;;;;;;7.63;97.42;95384.56;5110359;28;20244;-65
2021/04/18 08:04:50;;;;;;;29.77;16.23;;;;;;;7.83;95.35;95393.88;5110420;28;20223;-65
2021/04/18 08:07:17;;;;;;;32.70;18.40;;;;;;;7.85;95.84;95394.38;5110589;28;20282;-65
2021/04/18 08:09:45;;;;;;;23.93;15.90;;;;;;;7.76;95.27;95392.44;5110267;28;20230;-65
2021/04/18 08:12:14;;;;;;;29.63;17.53;;;;;;;7.87;95.26;95389.72;5110079;28;20195;-64
2021/04/18 08:14:42;;;;;;;36.17;21.73;;;;;;;8.01;95.81;95395.75;5110148;28;20199;-65
2021/04/18 08:17:12;;;;;;;32.50;20.40;;;;;;;8.08;93.59;95402.09;5109782;28;20696;-64
2021/04/18 08:19:42;;;;;;;28.30;17.00;;;;;;;8.02;94.24;95395.44;5109970;28;20282;-64
2021/04/18 08:22:09;;;;;;;29.10;16.50;;;;;;;8.04;94.62;95387.41;5110187;28;20223;-64
2021/04/18 08:24:37;;;;;;;26.33;16.03;;;;;;;8.03;93.42;95398.81;5110071;28;20278;-64
2021/04/18 08:27:07;;;;;;;61.63;36.50;;;;;;;8.03;93.34;95393.63;5110004;28;20195;-64
2021/04/18 08:29:35;;;;;;;38.87;23.73;;;;;;;8.00;93.70;95399.38;5109834;28;20235;-66
2021/04/18 08:32:11;;;;;;;36.27;19.53;;;;;;;7.97;95.63;95392.91;5110429;28;20206;-65
2021/04/18 08:34:44;;;;;;;38.97;22.23;;;;;;;8.17;94.53;95397.81;5110138;28;20201;-64
2021/04/18 08:37:17;;;;;;;32.20;18.97;;;;;;;8.22;91.93;95397.00;5110557;28;20619;-64
2021/04/18 08:39:44;;;;;;;27.87;16.33;;;;;;;8.34;92.27;95396.59;5109951;28;20279;-65
2021/04/18 08:42:26;;;;;;;28.50;17.33;;;;;;;8.34;92.22;95399.97;5109758;28;20199;-64
2021/04/18 08:44:53;;;;;;;30.50;17.27;;;;;;;8.35;91.08;95405.91;5110183;28;20260;-65
2021/04/18 08:47:24;;;;;;;30.13;15.73;;;;;;;8.26;90.55;95403.16;5109806;28;20191;-65
2021/04/18 08:49:56;;;;;;;34.40;22.27;;;;;;;8.36;91.38;95408.22;5109846;28;20227;-65
2021/04/18 08:52:24;;;;;;;29.90;17.90;;;;;;;8.42;92.56;95401.91;5109987;28;20552;-65
2021/04/18 08:54:54;;;;;;;24.23;15.73;;;;;;;8.38;90.44;95400.94;5110010;28;20191;-65
2021/04/18 08:57:23;;;;;;;27.67;20.00;;;;;;;8.53;90.66;95407.72;5109831;28;20191;-64
2021/04/18 08:59:54;;;;;;;40.53;23.83;;;;;;;8.62;92.07;95411.19;5109662;28;20195;-65
2021/04/18 09:02:21;;;;;;;26.40;16.77;;;;;;;8.55;89.49;95416.75;5109570;28;20199;-64
2021/04/18 09:04:49;;;;;;;26.47;16.17;;;;;;;8.71;88.12;95424.31;5109591;28;20191;-63
2021/04/18 09:07:18;;;;;;;32.03;15.03;;;;;;;8.68;87.96;95414.47;5109546;28;20199;-65
2021/04/18 09:09:45;;;;;;;39.07;20.73;;;;;;;8.79;88.64;95419.22;5109822;28;20227;-65
2021/04/18 09:12:17;;;;;;;25.70;14.97;;;;;;;8.73;89.17;95417.78;5109676;28;20229;-65
2021/04/18 09:14:48;;;;;;;36.07;18.37;;;;;;;8.77;88.14;95410.19;5109563;28;20192;-64
2021/04/18 09:17:17;;;;;;;33.03;19.07;;;;;;;8.79;88.49;95405.50;5109824;28;20287;-64
2021/04/18 09:19:46;;;;;;;26.47;15.10;;;;;;;8.87;87.60;95412.63;5110003;28;20717;-64
2021/04/18 09:22:15;;;;;;;25.20;14.20;;;;;;;8.81;87.55;95411.19;5110232;28;20286;-64
2021/04/18 09:24:45;;;;;;;27.20;16.80;;;;;;;8.86;87.66;95418.88;5109502;28;20576;-66
2021/04/18 09:27:14;;;;;;;35.20;20.70;;;;;;;8.88;86.70;95414.94;5109653;28;20191;-64
2021/04/18 09:29:48;;;;;;;35.23;19.83;;;;;;;8.89;88.46;95408.72;5112133;28;20226;-65
2021/04/18 09:32:17;;;;;;;38.07;20.37;;;;;;;8.96;88.66;95405.75;5113210;28;20193;-64
2021/04/18 09:34:45;;;;;;;23.13;13.20;;;;;;;9.10;87.74;95406.56;5113196;28;20194;-64
2021/04/18 09:37:16;;;;;;;28.93;15.07;;;;;;;9.18;86.83;95400.69;5113246;28;20218;-64
2021/04/18 09:39:44;;;;;;;28.37;16.10;;;;;;;9.21;87.17;95402.75;5113566;28;20227;-64
2021/04/18 09:42:11;;;;;;;31.63;15.70;;;;;;;9.28;86.82;95408.31;5113015;28;20260;-63
2021/04/18 09:44:44;;;;;;;33.57;18.23;;;;;;;9.37;85.91;95411.00;5112727;28;20221;-64
2021/04/18 09:47:24;;;;;;;26.30;15.13;;;;;;;9.33;84.38;95413.41;5113290;28;20199;-64
2021/04/18 09:49:54;;;;;;;23.60;14.23;;;;;;;9.45;84.02;95407.75;5112825;28;20227;-64
2021/04/18 09:52:26;;;;;;;25.00;13.93;;;;;;;9.50;84.06;95399.88;5112733;28;20282;-63
2021/04/18 09:54:53;;;;;;;56.73;27.37;;;;;;;9.40;86.41;95406.03;5112388;28;20214;-64
2021/04/18 09:57:23;;;;;;;37.50;20.03;;;;;;;9.48;87.94;95394.97;5112598;28;20684;-64
2021/04/18 10:00:10;;;;;;;59.73;30.17;;;;;;;9.63;88.34;95403.50;5112646;28;20191;-65
2021/04/18 10:02:41;;;;;;;59.07;30.40;;;;;;;9.65;85.86;95397.00;5112555;28;20279;-65
2021/04/18 10:05:10;;;;;;;32.50;17.77;;;;;;;9.66;83.36;95408.16;5112496;28;20207;-65
2021/04/18 10:07:37;;;;;;;23.77;14.37;;;;;;;9.68;82.76;95411.19;5112376;28;20236;-65
2021/04/18 10:10:06;;;;;;;34.60;17.00;;;;;;;9.57;83.73;95405.44;5112190;28;20608;-64
2021/04/18 10:12:52;;;;;;;29.27;19.57;;;;;;;9.45;85.00;95405.94;5112724;28;20226;-64
2021/04/18 10:15:20;;;;;;;23.77;14.93;;;;;;;9.46;88.20;95402.25;5112264;28;20215;-64
2021/04/18 10:17:48;;;;;;;22.87;12.73;;;;;;;9.47;87.12;95406.38;5112359;28;20705;-64
2021/04/18 10:20:26;;;;;;;20.47;12.13;;;;;;;9.44;87.48;95409.56;5112221;28;20610;-63
2021/04/18 10:23:06;;;;;;;15.37;11.53;;;;;;;9.50;87.41;95402.47;5112463;28;20671;-65
2021/04/18 10:25:34;;;;;;;16.57;10.17;;;;;;;9.49;87.59;95408.72;5112350;28;20199;-65
2021/04/18 10:28:01;;;;;;;12.73;9.37;;;;;;;9.52;86.75;95401.09;5110851;28;20199;-65
2021/04/18 10:30:28;;;;;;;14.80;8.80;;;;;;;9.46;87.29;95399.66;5112051;28;20705;-64
2021/04/18 10:32:56;;;;;;;15.90;9.90;;;;;;;9.45;86.44;95398.16;5112291;28;20751;-64
2021/04/18 10:35:23;;;;;;;15.33;10.10;;;;;;;9.41;86.83;95401.59;5111938;28;20195;-64
2021/04/18 10:37:51;;;;;;;17.37;10.80;;;;;;;9.46;86.45;95404.84;5112048;28;20285;-65
2021/04/18 10:40:22;;;;;;;14.90;10.00;;;;;;;9.52;87.42;95398.50;5111881;28;20198;-65
2021/04/18 10:42:50;;;;;;;15.43;9.23;;;;;;;9.60;87.38;95404.88;5111722;28;20207;-65
2021/04/18 10:45:18;;;;;;;16.73;9.40;;;;;;;9.75;88.37;95406.41;5112202;28;20191;-62
2021/04/18 10:47:45;;;;;;;17.40;9.53;;;;;;;9.74;87.78;95415.25;5111821;28;20575;-64
2021/04/18 10:50:14;;;;;;;16.50;9.23;;;;;;;9.75;86.41;95411.59;5111769;28;20813;-64
2021/04/18 10:52:41;;;;;;;18.30;9.93;;;;;;;9.66;87.02;95416.69;5111592;28;20733;-64
2021/04/18 10:55:10;;;;;;;17.60;10.07;;;;;;;9.75;87.87;95416.78;5111347;28;20195;-65
2021/04/18 10:57:37;;;;;;;19.37;10.63;;;;;;;9.85;86.41;95416.59;5111980;28;20195;-65
2021/04/18 11:00:08;;;;;;;15.50;9.80;;;;;;;9.92;86.10;95420.31;5111387;28;20223;-62
2021/04/18 11:02:35;;;;;;;14.23;9.07;;;;;;;9.94;85.79;95422.63;5111882;28;20248;-64
2021/04/18 11:05:02;;;;;;;15.17;10.20;;;;;;;9.78;85.26;95421.38;5111217;28;20614;-65
2021/04/18 11:07:31;;;;;;;17.50;10.07;;;;;;;9.79;85.39;95413.31;5111313;28;20298;-65
2021/04/18 11:09:57;;;;;;;16.17;10.50;;;;;;;9.93;86.62;95416.66;5111028;28;20234;-64
2021/04/18 11:12:24;;;;;;;16.43;9.93;;;;;;;10.05;86.02;95426.56;5111112;28;20197;-65
2021/04/18 11:14:51;;;;;;;14.60;10.20;;;;;;;10.07;84.79;95427.03;5111314;28;20217;-63
2021/04/18 11:17:18;;;;;;;18.33;9.77;;;;;;;9.98;84.13;95420.22;5110960;28;20237;-65
2021/04/18 11:19:45;;;;;;;14.13;9.50;;;;;;;9.95;84.53;95424.16;5111275;28;20218;-65
2021/04/18 11:22:12;;;;;;;15.43;9.53;;;;;;;9.89;85.69;95422.72;5111026;28;20653;-65
2021/04/18 11:24:40;;;;;;;19.13;10.67;;;;;;;9.79;86.17;95422.94;5110951;28;20281;-65
2021/04/18 11:27:07;;;;;;;13.50;9.37;;;;;;;9.92;86.39;95416.94;5111050;28;20190;-65